createdAt,value
2018-02-11T00:02:19.026Z,0.96
2018-02-11T00:04:46.654Z,1.02
2018-02-11T00:07:14.230Z,1.05
2018-02-11T00:09:41.815Z,1.07
2018-02-11T00:12:09.398Z,1.19
2018-02-11T00:14:36.985Z,1.17
2018-02-11T00:17:04.671Z,1.14
2018-02-11T00:19:32.255Z,1.12
2018-02-11T00:21:59.847Z,1.04
2018-02-11T00:24:27.450Z,1.11
2018-02-11T00:26:55.037Z,1.10
2018-02-11T00:29:22.714Z,1.07
2018-02-11T00:31:50.310Z,1.08
2018-02-11T00:34:17.890Z,1.09
2018-02-11T00:36:51.130Z,1.13
2018-02-11T00:39:18.718Z,1.13
2018-02-11T00:41:46.300Z,1.13
2018-02-11T00:44:13.877Z,1.10
2018-02-11T00:46:41.454Z,1.08
2018-02-11T00:49:09.031Z,1.04
2018-02-11T00:51:36.614Z,1.02
2018-02-11T00:54:04.257Z,1.00
2018-02-11T00:56:31.850Z,1.04
2018-02-11T00:58:59.483Z,1.02
2018-02-11T01:01:27.063Z,1.05
2018-02-11T01:03:54.752Z,1.07
2018-02-11T01:06:22.338Z,1.03
2018-02-11T01:08:49.922Z,1.09
2018-02-11T01:11:17.541Z,1.06
2018-02-11T01:13:45.125Z,1.21
2018-02-11T01:16:12.786Z,1.15
2018-02-11T01:18:40.474Z,1.11
2018-02-11T01:21:08.050Z,1.00
2018-02-11T01:23:35.631Z,0.96
2018-02-11T01:26:03.219Z,0.87
2018-02-11T01:28:30.806Z,0.87
2018-02-11T01:30:58.378Z,0.90
2018-02-11T01:33:25.958Z,0.89
2018-02-11T01:35:53.546Z,0.79
2018-02-11T01:38:21.134Z,0.74
2018-02-11T01:40:48.714Z,0.77
2018-02-11T01:43:16.338Z,0.84
2018-02-11T01:45:43.935Z,0.85
2018-02-11T01:48:11.579Z,0.81
2018-02-11T01:50:39.167Z,0.88
2018-02-11T01:53:06.757Z,0.85
2018-02-11T01:55:34.331Z,0.93
2018-02-11T01:58:01.914Z,0.84
2018-02-11T02:00:29.509Z,0.79
2018-02-11T02:02:57.094Z,0.65
2018-02-11T02:05:24.689Z,0.58
2018-02-11T02:07:52.284Z,0.39
2018-02-11T02:10:19.967Z,0.20
2018-02-11T02:12:47.631Z,0.23
2018-02-11T02:15:15.213Z,0.25
2018-02-11T02:17:42.800Z,0.05
2018-02-11T02:20:10.442Z,0.05
2018-02-11T02:22:38.038Z,-0.03
2018-02-11T02:25:05.835Z,-0.05
2018-02-11T02:27:33.507Z,-0.14
2018-02-11T02:30:01.100Z,-0.24
2018-02-11T02:32:28.694Z,-0.34
2018-02-11T02:34:56.386Z,-0.31
2018-02-11T02:37:24.089Z,-0.40
2018-02-11T02:39:52.073Z,-0.40
2018-02-11T02:42:19.698Z,-0.41
2018-02-11T02:44:47.383Z,-0.42
2018-02-11T02:47:14.971Z,-0.41
2018-02-11T02:49:42.559Z,-0.40
2018-02-11T02:52:10.154Z,-0.38
2018-02-11T02:54:37.746Z,-0.37
2018-02-11T02:57:05.390Z,-0.36
2018-02-11T02:59:32.979Z,-0.33
2018-02-11T03:02:00.609Z,-0.24
2018-02-11T03:04:28.395Z,-0.12
2018-02-11T03:06:56.160Z,-0.11
2018-02-11T03:09:23.741Z,0.05
2018-02-11T03:11:51.327Z,0.02
2018-02-11T03:14:18.925Z,0.04
2018-02-11T03:16:46.514Z,0.20
2018-02-11T03:19:14.156Z,0.16
2018-02-11T03:21:41.788Z,0.25
2018-02-11T03:24:09.369Z,0.30
2018-02-11T03:26:36.950Z,0.41
2018-02-11T03:29:04.574Z,0.30
2018-02-11T03:31:32.171Z,0.41
2018-02-11T03:33:59.745Z,0.47
2018-02-11T03:36:27.329Z,0.44
2018-02-11T03:38:54.910Z,0.48
2018-02-11T03:41:22.493Z,0.44
2018-02-11T03:43:50.106Z,0.43
2018-02-11T03:46:17.727Z,0.55
2018-02-11T03:48:45.311Z,0.54
2018-02-11T03:51:12.898Z,0.52
2018-02-11T03:53:40.487Z,0.53
2018-02-11T03:56:08.144Z,0.51
2018-02-11T03:58:35.735Z,0.58
2018-02-11T04:01:03.323Z,0.62
2018-02-11T04:03:30.905Z,0.76
2018-02-11T04:05:58.484Z,0.68
2018-02-11T04:08:26.078Z,0.65
2018-02-11T04:10:53.659Z,0.78
2018-02-11T04:13:21.273Z,0.77
2018-02-11T04:15:48.931Z,0.83
2018-02-11T04:18:16.528Z,0.83
2018-02-11T04:20:44.114Z,0.79
2018-02-11T04:23:11.703Z,0.80
2018-02-11T04:25:39.283Z,0.75
2018-02-11T04:28:06.866Z,0.83
2018-02-11T04:30:34.455Z,0.83
2018-02-11T04:33:02.093Z,0.81
2018-02-11T04:35:29.675Z,0.79
2018-02-11T04:37:57.275Z,0.80
2018-02-11T04:40:24.979Z,0.90
2018-02-11T04:42:52.613Z,0.87
2018-02-11T04:45:20.270Z,0.87
2018-02-11T04:47:47.971Z,1.03
2018-02-11T04:50:15.595Z,0.96
2018-02-11T04:52:43.189Z,1.09
2018-02-11T04:55:10.934Z,0.98
2018-02-11T04:57:38.548Z,0.98
2018-02-11T05:00:06.126Z,1.14
2018-02-11T05:02:33.743Z,1.06
2018-02-11T05:05:01.334Z,0.96
2018-02-11T05:07:28.919Z,0.91
2018-02-11T05:09:56.544Z,0.89
2018-02-11T05:12:24.117Z,0.96
2018-02-11T05:14:51.703Z,0.97
2018-02-11T05:17:19.275Z,0.95
2018-02-11T05:19:46.866Z,1.04
2018-02-11T05:22:14.450Z,1.06
2018-02-11T05:24:42.099Z,1.12
2018-02-11T05:27:09.682Z,1.02
2018-02-11T05:29:37.273Z,1.20
2018-02-11T05:32:04.942Z,1.16
2018-02-11T05:34:32.604Z,1.12
2018-02-11T05:37:00.192Z,1.19
2018-02-11T05:39:27.776Z,1.22
2018-02-11T05:41:55.394Z,1.14
2018-02-11T05:44:22.980Z,1.11
2018-02-11T05:46:50.554Z,1.16
2018-02-11T05:49:18.140Z,1.07
2018-02-11T05:51:45.726Z,1.18
2018-02-11T05:54:13.302Z,1.16
2018-02-11T05:56:40.877Z,1.18
2018-02-11T05:59:08.455Z,1.29
2018-02-11T06:01:36.039Z,1.30
2018-02-11T06:04:03.626Z,1.34
2018-02-11T06:06:31.222Z,1.24
2018-02-11T06:08:58.810Z,1.30
2018-02-11T06:11:26.392Z,1.24
2018-02-11T06:13:53.983Z,1.17
2018-02-11T06:16:21.569Z,1.24
2018-02-11T06:18:49.199Z,1.26
2018-02-11T06:21:16.878Z,1.31
2018-02-11T06:23:45.082Z,1.32
2018-02-11T06:26:12.670Z,1.31
2018-02-11T06:28:40.325Z,1.17
2018-02-11T06:31:07.929Z,1.26
2018-02-11T06:33:35.532Z,1.33
2018-02-11T06:36:03.123Z,1.28
2018-02-11T06:38:30.707Z,1.23
2018-02-11T06:40:58.278Z,1.24
2018-02-11T06:43:25.860Z,1.19
2018-02-11T06:45:53.441Z,1.20
2018-02-11T06:48:21.028Z,1.23
2018-02-11T06:50:48.727Z,1.40
2018-02-11T06:53:16.306Z,1.41
2018-02-11T06:55:43.883Z,1.42
2018-02-11T06:58:11.460Z,1.42
2018-02-11T07:00:39.038Z,1.42
2018-02-11T07:03:06.618Z,1.41
2018-02-11T07:05:34.195Z,1.47
2018-02-11T07:08:01.893Z,1.52
2018-02-11T07:10:29.517Z,1.53
2018-02-11T07:12:57.099Z,1.60
2018-02-11T07:15:24.680Z,1.62
2018-02-11T07:17:52.406Z,1.63
2018-02-11T07:20:19.991Z,1.76
2018-02-11T07:22:47.602Z,1.67
2018-02-11T07:25:15.242Z,1.77
2018-02-11T07:27:42.851Z,1.87
2018-02-11T07:30:10.437Z,1.91
2018-02-11T07:32:38.028Z,2.00
2018-02-11T07:35:05.698Z,2.13
2018-02-11T07:37:33.270Z,2.12
2018-02-11T07:40:00.852Z,2.08
2018-02-11T07:42:28.434Z,2.12
2018-02-11T07:44:56.015Z,2.25
2018-02-11T07:47:23.594Z,2.29
2018-02-11T07:49:51.422Z,2.28
2018-02-11T07:52:19.125Z,2.40
2018-02-11T07:54:46.705Z,2.52
2018-02-11T07:57:14.286Z,2.60
2018-02-11T07:59:41.869Z,2.78
2018-02-11T08:02:09.450Z,2.98
2018-02-11T08:04:37.044Z,3.23
2018-02-11T08:07:04.746Z,3.20
2018-02-11T08:09:32.506Z,3.19
2018-02-11T08:12:00.099Z,2.96
2018-02-11T08:14:27.718Z,3.02
2018-02-11T08:16:55.338Z,2.90
2018-02-11T08:19:22.927Z,2.79
2018-02-11T08:21:50.650Z,2.66
2018-02-11T08:24:18.291Z,2.76
2018-02-11T08:26:45.979Z,2.77
2018-02-11T08:29:13.601Z,2.81
2018-02-11T08:31:41.234Z,2.80
2018-02-11T08:34:08.865Z,2.94
2018-02-11T08:36:36.478Z,2.92
2018-02-11T08:39:04.060Z,2.90
2018-02-11T08:41:31.636Z,3.04
2018-02-11T08:43:59.214Z,3.18
2018-02-11T08:46:26.799Z,3.22
2018-02-11T08:48:54.382Z,3.27
2018-02-11T08:51:21.963Z,3.30
2018-02-11T08:53:49.629Z,3.26
2018-02-11T08:56:17.249Z,3.48
2018-02-11T08:58:44.822Z,3.48
2018-02-11T09:01:12.438Z,3.51
2018-02-11T09:03:40.024Z,3.64
2018-02-11T09:06:07.605Z,3.64
2018-02-11T09:08:35.263Z,3.86
2018-02-11T09:11:02.838Z,3.75
2018-02-11T09:13:30.448Z,3.83
2018-02-11T09:15:58.031Z,3.81
2018-02-11T09:18:25.602Z,3.91
2018-02-11T09:20:53.198Z,3.84
2018-02-11T09:23:20.782Z,3.88
2018-02-11T09:25:48.393Z,4.04
2018-02-11T09:28:16.140Z,4.09
2018-02-11T09:30:47.936Z,4.25
2018-02-11T09:33:18.255Z,4.43
2018-02-11T09:35:46.500Z,4.54
2018-02-11T09:38:14.596Z,4.46
2018-02-11T09:40:42.350Z,4.33
2018-02-11T09:43:10.655Z,4.73
2018-02-11T09:45:38.248Z,4.74
2018-02-11T09:48:06.069Z,4.68
2018-02-11T09:50:33.646Z,4.63
2018-02-11T09:53:01.242Z,4.55
2018-02-11T09:55:28.911Z,4.51
2018-02-11T09:57:56.503Z,4.60
2018-02-11T10:00:24.728Z,4.47
2018-02-11T10:02:52.485Z,4.53
2018-02-11T10:05:20.194Z,4.48
2018-02-11T10:07:47.811Z,4.54
2018-02-11T10:10:15.394Z,4.61
2018-02-11T10:12:42.963Z,4.72
2018-02-11T10:15:10.588Z,4.81
2018-02-11T10:17:39.328Z,4.77
2018-02-11T10:20:06.903Z,4.78
2018-02-11T10:22:34.552Z,4.73
2018-02-11T10:25:02.127Z,4.77
2018-02-11T10:27:29.720Z,4.78
2018-02-11T10:29:57.298Z,4.84
2018-02-11T10:32:24.906Z,5.07
2018-02-11T10:34:52.475Z,4.97
2018-02-11T10:37:20.166Z,4.99
2018-02-11T10:39:47.882Z,4.90
2018-02-11T10:42:15.495Z,4.96
2018-02-11T10:44:43.058Z,5.13
2018-02-11T10:47:10.635Z,5.24
2018-02-11T10:49:38.774Z,5.29
2018-02-11T10:52:07.019Z,5.24
2018-02-11T10:54:34.655Z,5.25
2018-02-11T10:57:02.293Z,5.32
2018-02-11T10:59:30.805Z,5.31
2018-02-11T11:01:58.383Z,5.41
2018-02-11T11:04:25.978Z,5.53
2018-02-11T11:06:55.365Z,5.43
2018-02-11T11:09:23.067Z,5.45
2018-02-11T11:11:50.691Z,5.41
2018-02-11T11:14:18.311Z,5.44
2018-02-11T11:16:45.959Z,5.61
2018-02-11T11:19:13.530Z,5.45
2018-02-11T11:21:41.106Z,5.53
2018-02-11T11:24:08.678Z,5.53
2018-02-11T11:26:36.291Z,5.56
2018-02-11T11:29:03.867Z,5.51
2018-02-11T11:31:31.496Z,5.70
2018-02-11T11:33:59.103Z,5.72
2018-02-11T11:36:26.719Z,5.85
2018-02-11T11:38:54.287Z,5.99
2018-02-11T11:41:21.890Z,6.01
2018-02-11T11:43:49.474Z,5.88
2018-02-11T11:46:17.091Z,5.95
2018-02-11T11:48:44.702Z,5.72
2018-02-11T11:51:12.275Z,5.58
2018-02-11T11:53:39.886Z,5.41
2018-02-11T11:56:07.467Z,5.35
2018-02-11T11:58:35.054Z,5.41
2018-02-11T12:01:02.686Z,5.40
2018-02-11T12:03:30.337Z,5.37
2018-02-11T12:05:57.980Z,5.09
2018-02-11T12:08:25.674Z,4.94
2018-02-11T12:10:53.248Z,5.01
2018-02-11T12:13:20.822Z,4.99
2018-02-11T12:15:48.431Z,4.91
2018-02-11T12:18:16.047Z,4.96
2018-02-11T12:20:43.655Z,5.02
2018-02-11T12:23:11.261Z,5.03
2018-02-11T12:25:38.827Z,5.03
2018-02-11T12:28:06.395Z,5.00
2018-02-11T12:30:34.062Z,4.95
2018-02-11T12:33:01.642Z,4.98
2018-02-11T12:35:29.227Z,5.08
2018-02-11T12:37:56.870Z,4.98
2018-02-11T12:40:24.438Z,5.00
2018-02-11T12:42:52.011Z,4.95
2018-02-11T12:45:19.587Z,4.80
2018-02-11T12:47:47.222Z,4.84
2018-02-11T12:50:15.118Z,4.72
2018-02-11T12:52:42.755Z,4.55
2018-02-11T12:55:10.330Z,4.76
2018-02-11T12:57:37.974Z,4.80
2018-02-11T13:00:05.588Z,4.82
2018-02-11T13:02:33.157Z,4.66
2018-02-11T13:05:01.290Z,4.61
2018-02-11T13:07:28.863Z,4.46
2018-02-11T13:09:56.494Z,4.26
2018-02-11T13:12:24.112Z,4.12
2018-02-11T13:14:51.682Z,4.07
2018-02-11T13:17:19.255Z,4.02
2018-02-11T13:19:46.831Z,3.93
2018-02-11T13:22:15.289Z,3.62
2018-02-11T13:24:44.957Z,3.62
2018-02-11T13:27:13.258Z,3.57
2018-02-11T13:29:40.838Z,3.57
2018-02-11T13:32:08.452Z,3.37
2018-02-11T13:34:36.103Z,3.28
2018-02-11T13:37:03.759Z,3.21
2018-02-11T13:39:32.109Z,3.11
2018-02-11T13:41:59.744Z,2.96
2018-02-11T13:44:27.319Z,3.01
2018-02-11T13:46:54.936Z,2.92
2018-02-11T13:49:22.639Z,3.00
2018-02-11T13:51:50.259Z,2.92
2018-02-11T13:54:17.859Z,2.92
2018-02-11T13:56:45.437Z,2.86
2018-02-11T13:59:13.098Z,2.94
2018-02-11T14:01:40.799Z,3.03
2018-02-11T14:04:08.490Z,2.95
2018-02-11T14:06:36.126Z,2.99
2018-02-11T14:09:03.740Z,3.08
2018-02-11T14:11:31.314Z,3.03
2018-02-11T14:13:58.928Z,2.94
2018-02-11T14:16:26.504Z,2.96
2018-02-11T14:18:54.087Z,2.86
2018-02-11T14:21:21.691Z,2.83
2018-02-11T14:23:49.306Z,2.84
2018-02-11T14:26:16.914Z,2.88
2018-02-11T14:28:44.575Z,2.81
2018-02-11T14:31:12.146Z,2.78
2018-02-11T14:33:39.770Z,2.77
2018-02-11T14:36:07.383Z,2.70
2018-02-11T14:38:34.992Z,2.79
2018-02-11T14:41:02.566Z,2.88
2018-02-11T14:43:30.246Z,2.87
2018-02-11T14:45:57.835Z,2.74
2018-02-11T14:48:25.410Z,2.80
2018-02-11T14:50:53.000Z,2.61
2018-02-11T14:53:20.611Z,2.60
2018-02-11T14:55:48.193Z,2.65
2018-02-11T14:58:16.948Z,2.69
2018-02-11T15:00:44.571Z,2.56
2018-02-11T15:03:12.687Z,2.52
2018-02-11T15:05:40.344Z,2.50
2018-02-11T15:08:08.007Z,2.45
2018-02-11T15:10:35.623Z,2.41
2018-02-11T15:13:03.194Z,2.40
2018-02-11T15:15:30.813Z,2.44
2018-02-11T15:17:58.552Z,2.41
2018-02-11T15:20:26.183Z,2.48
2018-02-11T15:22:54.146Z,2.43
2018-02-11T15:25:21.822Z,2.32
2018-02-11T15:27:49.683Z,2.42
2018-02-11T15:30:17.384Z,2.43
2018-02-11T15:32:45.000Z,2.40
2018-02-11T15:35:12.584Z,2.38
2018-02-11T15:37:40.195Z,2.36
2018-02-11T15:40:07.779Z,2.37
2018-02-11T15:42:35.394Z,2.45
2018-02-11T15:45:02.975Z,2.44
2018-02-11T15:47:30.591Z,2.37
2018-02-11T15:49:58.894Z,2.49
2018-02-11T15:52:26.589Z,2.39
2018-02-11T15:54:54.171Z,2.41
2018-02-11T15:57:21.779Z,2.42
2018-02-11T15:59:49.354Z,2.42
2018-02-11T16:02:17.001Z,2.37
2018-02-11T16:04:44.583Z,2.47
2018-02-11T16:07:12.169Z,2.36
2018-02-11T16:09:39.750Z,2.40
2018-02-11T16:12:07.466Z,2.29
2018-02-11T16:14:37.129Z,2.27
2018-02-11T16:17:05.685Z,2.31
2018-02-11T16:19:34.214Z,2.34
2018-02-11T16:22:01.837Z,2.24
2018-02-11T16:24:30.163Z,2.29
2018-02-11T16:27:00.761Z,2.24
2018-02-11T16:29:33.491Z,2.24
2018-02-11T16:32:01.216Z,2.18
2018-02-11T16:34:28.831Z,2.35
2018-02-11T16:36:56.408Z,2.34
2018-02-11T16:39:24.055Z,2.26
2018-02-11T16:41:51.719Z,2.23
2018-02-11T16:44:19.359Z,2.25
2018-02-11T16:46:46.997Z,2.29
2018-02-11T16:49:14.594Z,2.29
2018-02-11T16:51:42.171Z,2.31
2018-02-11T16:54:09.984Z,2.27
2018-02-11T16:56:37.566Z,2.27
2018-02-11T16:59:05.146Z,2.36
2018-02-11T17:01:32.746Z,2.35
2018-02-11T17:04:00.344Z,2.35
2018-02-11T17:06:28.158Z,2.34
2018-02-11T17:08:55.747Z,2.34
2018-02-11T17:11:23.324Z,2.30
2018-02-11T17:13:50.935Z,2.37
2018-02-11T17:16:18.520Z,2.44
2018-02-11T17:18:46.291Z,2.27
2018-02-11T17:21:13.866Z,2.24
2018-02-11T17:23:41.482Z,2.26
2018-02-11T17:26:09.277Z,2.27
2018-02-11T17:28:36.962Z,2.24
2018-02-11T17:31:04.570Z,2.30
2018-02-11T17:33:32.227Z,2.25
2018-02-11T17:36:00.227Z,2.24
2018-02-11T17:38:27.816Z,2.32
2018-02-11T17:40:55.399Z,2.34
2018-02-11T17:43:23.118Z,2.26
2018-02-11T17:45:50.698Z,2.34
2018-02-11T17:48:18.479Z,2.37
2018-02-11T17:50:46.103Z,2.32
2018-02-11T17:53:13.679Z,2.35
2018-02-11T17:55:41.255Z,2.32
2018-02-11T17:58:08.832Z,2.33
2018-02-11T18:00:36.671Z,2.29
2018-02-11T18:03:04.727Z,2.26
2018-02-11T18:05:32.622Z,2.30
2018-02-11T18:08:02.551Z,2.40
2018-02-11T18:10:30.378Z,2.39
2018-02-11T18:12:58.126Z,2.30
2018-02-11T18:15:25.915Z,2.42
2018-02-11T18:17:53.573Z,2.41
2018-02-11T18:20:21.163Z,2.43
2018-02-11T18:22:48.788Z,2.47
2018-02-11T18:25:16.640Z,2.53
2018-02-11T18:27:44.398Z,2.57
2018-02-11T18:30:11.982Z,2.58
2018-02-11T18:32:39.698Z,2.54
2018-02-11T18:35:07.292Z,2.47
2018-02-11T18:37:35.044Z,2.40
2018-02-11T18:40:02.750Z,2.50
2018-02-11T18:42:30.339Z,2.49
2018-02-11T18:44:58.047Z,2.48
2018-02-11T18:47:25.860Z,2.61
2018-02-11T18:49:54.733Z,2.46
2018-02-11T18:52:22.435Z,2.47
2018-02-11T18:54:50.007Z,2.47
2018-02-11T18:57:17.620Z,2.44
2018-02-11T18:59:45.483Z,2.51
2018-02-11T19:02:13.396Z,2.44
2018-02-11T19:04:41.028Z,2.42
2018-02-11T19:07:08.719Z,2.34
2018-02-11T19:09:36.467Z,2.34
2018-02-11T19:12:04.312Z,2.32
2018-02-11T19:14:31.964Z,2.42
2018-02-11T19:16:59.575Z,2.35
2018-02-11T19:19:27.401Z,2.40
2018-02-11T19:21:55.019Z,2.50
2018-02-11T19:24:22.665Z,2.42
2018-02-11T19:26:50.286Z,2.49
2018-02-11T19:29:18.134Z,2.37
2018-02-11T19:31:45.719Z,2.39
2018-02-11T19:34:13.424Z,2.34
2018-02-11T19:36:41.135Z,2.27
2018-02-11T19:39:08.901Z,2.38
2018-02-11T19:41:36.471Z,2.43
2018-02-11T19:44:04.044Z,2.41
2018-02-11T19:46:31.631Z,2.44
2018-02-11T19:48:59.471Z,2.39
2018-02-11T19:51:27.124Z,2.46
2018-02-11T19:53:54.706Z,2.53
2018-02-11T19:56:22.278Z,2.47
2018-02-11T19:58:50.008Z,2.46
2018-02-11T20:01:17.660Z,2.46
2018-02-11T20:03:45.242Z,2.47
2018-02-11T20:06:12.820Z,2.55
2018-02-11T20:08:40.548Z,2.49
2018-02-11T20:11:08.321Z,2.49
2018-02-11T20:13:35.919Z,2.47
2018-02-11T20:16:03.487Z,2.49
2018-02-11T20:18:31.071Z,2.48
2018-02-11T20:20:58.841Z,2.44
2018-02-11T20:23:26.473Z,2.43
2018-02-11T20:25:54.041Z,2.41
2018-02-11T20:28:21.625Z,2.42
2018-02-11T20:30:49.337Z,2.42
2018-02-11T20:33:17.844Z,2.45
2018-02-11T20:35:46.062Z,2.41
2018-02-11T20:38:13.636Z,2.41
2018-02-11T20:40:41.271Z,2.49
2018-02-11T20:43:09.050Z,2.56
2018-02-11T20:45:36.674Z,2.57
2018-02-11T20:48:04.245Z,2.55
2018-02-11T20:50:31.888Z,2.59
2018-02-11T20:52:59.557Z,2.61
2018-02-11T20:55:27.161Z,2.56
2018-02-11T20:57:55.144Z,2.64
2018-02-11T21:00:22.724Z,2.65
2018-02-11T21:02:50.299Z,2.56
2018-02-11T21:05:17.900Z,2.50
2018-02-11T21:07:45.563Z,2.47
2018-02-11T21:10:13.367Z,2.46
2018-02-11T21:12:41.059Z,2.42
2018-02-11T21:15:08.773Z,2.37
2018-02-11T21:17:36.342Z,2.36
2018-02-11T21:20:04.072Z,2.40
2018-02-11T21:22:31.655Z,2.40
2018-02-11T21:24:59.434Z,2.44
2018-02-11T21:27:27.137Z,2.54
2018-02-11T21:29:54.863Z,2.61
2018-02-11T21:32:22.483Z,2.66
2018-02-11T21:34:50.127Z,2.78
2018-02-11T21:37:18.071Z,2.83
2018-02-11T21:39:45.655Z,2.77
2018-02-11T21:42:13.474Z,2.74
2018-02-11T21:44:41.045Z,2.69
2018-02-11T21:47:08.654Z,2.72
2018-02-11T21:49:36.275Z,2.62
2018-02-11T21:52:03.848Z,2.62
2018-02-11T21:54:31.427Z,2.68
2018-02-11T21:56:59.041Z,2.66
2018-02-11T21:59:26.659Z,2.75
2018-02-11T22:01:54.482Z,2.71
2018-02-11T22:04:22.054Z,2.74
2018-02-11T22:06:49.626Z,2.76
2018-02-11T22:09:17.358Z,2.73
2018-02-11T22:11:44.966Z,2.71
2018-02-11T22:14:12.627Z,2.74
2018-02-11T22:16:40.202Z,2.76
2018-02-11T22:19:07.883Z,2.76
2018-02-11T22:21:35.446Z,2.81
2018-02-11T22:24:03.058Z,2.82
2018-02-11T22:26:30.734Z,2.95
2018-02-11T22:28:58.335Z,3.02
2018-02-11T22:31:25.907Z,2.94
2018-02-11T22:33:53.511Z,3.05
2018-02-11T22:36:21.076Z,3.06
2018-02-11T22:38:48.692Z,2.95
2018-02-11T22:41:16.406Z,2.98
2018-02-11T22:43:44.590Z,2.96
2018-02-11T22:46:12.168Z,3.02
2018-02-11T22:48:39.849Z,2.95
2018-02-11T22:51:07.415Z,3.07
2018-02-11T22:53:35.048Z,3.06
2018-02-11T22:56:02.694Z,3.01
2018-02-11T22:58:30.264Z,3.10
2018-02-11T23:00:57.913Z,3.05
2018-02-11T23:05:53.203Z,3.01
2018-02-11T23:08:20.776Z,3.02
2018-02-11T23:10:48.338Z,3.00
2018-02-11T23:13:15.910Z,2.87
2018-02-11T23:15:43.474Z,2.81
2018-02-11T23:18:11.048Z,2.80
2018-02-11T23:20:38.616Z,2.68
2018-02-11T23:23:06.183Z,2.56
2018-02-11T23:25:33.756Z,2.51
2018-02-11T23:28:01.385Z,2.58
2018-02-11T23:30:29.050Z,2.56
2018-02-11T23:32:56.719Z,2.45
2018-02-11T23:35:24.302Z,2.43
2018-02-11T23:37:51.970Z,2.36
2018-02-11T23:40:19.544Z,2.46
2018-02-11T23:42:47.226Z,2.28
2018-02-11T23:45:14.793Z,2.22
2018-02-11T23:47:42.489Z,2.25
2018-02-11T23:50:10.087Z,2.13
2018-02-11T23:52:37.664Z,1.97
2018-02-11T23:55:05.233Z,1.93
2018-02-11T23:57:32.806Z,2.07
